KONL/ONL METAR and TAF weather

Enter ICAO airport designator
Station Type Date Time Source
KONL METAR 2022/12/10 01:55 UTC NOAA

KONL 100155Z AUTO 17010KT 1SM BR OVC001 M02/M03 A3004 RMK AO2 T10211028


Station Type Date Time Source
KONL Decoded METAR 2022/12/10 01:55 UTC NOAA

O'Neill / Baker Field, NE, United States (KONL) 42-28N 098-41W
Dec 09, 2022 - 08:55 PM EST / 2022.12.10 0155 UTC
Wind: from the S (170 degrees) at 12 MPH (10 KT):0
Visibility: 1 mile(s):0
Sky conditions: overcast
Weather: mist
Temperature: 28.2 F (-2.1 C)
Windchill: 17 F (-8 C):1
Dew Point: 27.0 F (-2.8 C)
Relative Humidity: 94%
Pressure (altimeter): 30.04 in. Hg (1017 hPa)
ob: KONL 100155Z AUTO 17010KT 1SM BR OVC001 M02/M03 A3004 RMK AO2 T10211028
cycle: 2

Station Type Date Time Source
KONL TAF UTC NOAA

Error!

Example: see airport list